sensor_id;sensor_type;location;lat;lon;timestamp;P1;durP1;ratioP1;P2;durP2;ratioP2
6997;SDS011;3539;47.982;12.238;2023-09-18T00:00:31;4.80;;;3.90;;
6997;SDS011;3539;47.982;12.238;2023-09-18T00:03:00;5.73;;;4.20;;
6997;SDS011;3539;47.982;12.238;2023-09-18T00:05:28;4.77;;;4.33;;
6997;SDS011;3539;47.982;12.238;2023-09-18T00:07:56;4.87;;;4.30;;
6997;SDS011;3539;47.982;12.238;2023-09-18T00:10:23;4.73;;;4.23;;
6997;SDS011;3539;47.982;12.238;2023-09-18T00:12:50;6.43;;;4.47;;
6997;SDS011;3539;47.982;12.238;2023-09-18T00:15:16;4.43;;;4.03;;
6997;SDS011;3539;47.982;12.238;2023-09-18T00:17:43;4.57;;;4.03;;
6997;SDS011;3539;47.982;12.238;2023-09-18T00:20:10;4.53;;;3.80;;
6997;SDS011;3539;47.982;12.238;2023-09-18T00:22:38;5.90;;;4.20;;
6997;SDS011;3539;47.982;12.238;2023-09-18T00:25:07;4.07;;;3.67;;
6997;SDS011;3539;47.982;12.238;2023-09-18T00:27:34;4.90;;;3.90;;
6997;SDS011;3539;47.982;12.238;2023-09-18T00:30:01;4.60;;;4.00;;
6997;SDS011;3539;47.982;12.238;2023-09-18T00:32:28;4.50;;;3.73;;
6997;SDS011;3539;47.982;12.238;2023-09-18T00:34:54;4.40;;;3.57;;
6997;SDS011;3539;47.982;12.238;2023-09-18T00:37:22;4.40;;;4.00;;
6997;SDS011;3539;47.982;12.238;2023-09-18T00:39:49;3.93;;;3.53;;
6997;SDS011;3539;47.982;12.238;2023-09-18T00:42:17;4.07;;;3.10;;
6997;SDS011;3539;47.982;12.238;2023-09-18T00:44:44;3.60;;;3.30;;
6997;SDS011;3539;47.982;12.238;2023-09-18T00:47:11;3.33;;;3.03;;
6997;SDS011;3539;47.982;12.238;2023-09-18T00:49:38;4.50;;;3.07;;
6997;SDS011;3539;47.982;12.238;2023-09-18T00:52:06;3.80;;;3.50;;
6997;SDS011;3539;47.982;12.238;2023-09-18T00:54:34;4.63;;;3.77;;
6997;SDS011;3539;47.982;12.238;2023-09-18T00:57:01;3.80;;;3.50;;
6997;SDS011;3539;47.982;12.238;2023-09-18T00:59:29;4.47;;;4.07;;
6997;SDS011;3539;47.982;12.238;2023-09-18T01:01:58;5.30;;;4.50;;
6997;SDS011;3539;47.982;12.238;2023-09-18T01:04:25;4.07;;;3.77;;
6997;SDS011;3539;47.982;12.238;2023-09-18T01:06:53;5.20;;;3.67;;
6997;SDS011;3539;47.982;12.238;2023-09-18T01:09:21;4.97;;;3.57;;
6997;SDS011;3539;47.982;12.238;2023-09-18T01:11:50;4.33;;;3.33;;
6997;SDS011;3539;47.982;12.238;2023-09-18T01:14:24;4.00;;;3.60;;
6997;SDS011;3539;47.982;12.238;2023-09-18T01:16:56;4.27;;;3.87;;
6997;SDS011;3539;47.982;12.238;2023-09-18T01:19:39;4.33;;;3.57;;
6997;SDS011;3539;47.982;12.238;2023-09-18T01:22:07;3.70;;;3.37;;
6997;SDS011;3539;47.982;12.238;2023-09-18T01:24:36;4.17;;;3.77;;
6997;SDS011;3539;47.982;12.238;2023-09-18T01:27:04;4.57;;;3.43;;
6997;SDS011;3539;47.982;12.238;2023-09-18T01:29:31;4.30;;;3.90;;
6997;SDS011;3539;47.982;12.238;2023-09-18T01:31:58;4.73;;;3.63;;
6997;SDS011;3539;47.982;12.238;2023-09-18T01:34:25;4.93;;;4.20;;
6997;SDS011;3539;47.982;12.238;2023-09-18T01:36:57;4.23;;;3.83;;
6997;SDS011;3539;47.982;12.238;2023-09-18T01:39:24;4.03;;;3.63;;
6997;SDS011;3539;47.982;12.238;2023-09-18T01:41:53;5.57;;;3.77;;
6997;SDS011;3539;47.982;12.238;2023-09-18T01:44:20;4.20;;;3.50;;
6997;SDS011;3539;47.982;12.238;2023-09-18T01:46:47;3.93;;;3.63;;
6997;SDS011;3539;47.982;12.238;2023-09-18T01:49:16;4.10;;;3.70;;
6997;SDS011;3539;47.982;12.238;2023-09-18T01:51:43;4.63;;;3.67;;
6997;SDS011;3539;47.982;12.238;2023-09-18T01:54:09;4.60;;;4.20;;
6997;SDS011;3539;47.982;12.238;2023-09-18T01:56:36;5.13;;;4.47;;
6997;SDS011;3539;47.982;12.238;2023-09-18T01:59:04;5.23;;;4.40;;
6997;SDS011;3539;47.982;12.238;2023-09-18T02:01:31;5.27;;;4.77;;
6997;SDS011;3539;47.982;12.238;2023-09-18T02:03:58;6.33;;;4.33;;
6997;SDS011;3539;47.982;12.238;2023-09-18T02:06:24;5.50;;;4.47;;
6997;SDS011;3539;47.982;12.238;2023-09-18T02:08:50;5.13;;;4.43;;
6997;SDS011;3539;47.982;12.238;2023-09-18T02:11:18;5.70;;;4.10;;
6997;SDS011;3539;47.982;12.238;2023-09-18T02:13:45;6.03;;;3.83;;
6997;SDS011;3539;47.982;12.238;2023-09-18T02:16:13;4.40;;;4.00;;
6997;SDS011;3539;47.982;12.238;2023-09-18T02:18:40;3.80;;;3.50;;
6997;SDS011;3539;47.982;12.238;2023-09-18T02:21:06;4.80;;;4.03;;
6997;SDS011;3539;47.982;12.238;2023-09-18T02:23:33;4.17;;;3.77;;
6997;SDS011;3539;47.982;12.238;2023-09-18T02:26:00;4.33;;;3.77;;
6997;SDS011;3539;47.982;12.238;2023-09-18T02:28:26;5.07;;;4.57;;
6997;SDS011;3539;47.982;12.238;2023-09-18T02:30:53;4.83;;;4.10;;
6997;SDS011;3539;47.982;12.238;2023-09-18T02:33:21;4.40;;;4.00;;
6997;SDS011;3539;47.982;12.238;2023-09-18T02:35:48;4.87;;;4.40;;
6997;SDS011;3539;47.982;12.238;2023-09-18T02:38:15;5.60;;;5.10;;
6997;SDS011;3539;47.982;12.238;2023-09-18T02:40:41;4.73;;;4.30;;
6997;SDS011;3539;47.982;12.238;2023-09-18T02:43:08;5.67;;;5.17;;
6997;SDS011;3539;47.982;12.238;2023-09-18T02:45:35;6.43;;;5.80;;
6997;SDS011;3539;47.982;12.238;2023-09-18T02:48:02;6.63;;;4.90;;
6997;SDS011;3539;47.982;12.238;2023-09-18T02:50:30;4.50;;;4.10;;
6997;SDS011;3539;47.982;12.238;2023-09-18T02:52:57;4.63;;;3.77;;
6997;SDS011;3539;47.982;12.238;2023-09-18T02:55:24;4.30;;;3.47;;
6997;SDS011;3539;47.982;12.238;2023-09-18T02:57:51;3.60;;;3.30;;
6997;SDS011;3539;47.982;12.238;2023-09-18T03:00:17;4.10;;;3.70;;
6997;SDS011;3539;47.982;12.238;2023-09-18T03:02:44;3.87;;;3.50;;
6997;SDS011;3539;47.982;12.238;2023-09-18T03:05:11;4.37;;;3.97;;
6997;SDS011;3539;47.982;12.238;2023-09-18T03:07:39;10.23;;;7.10;;
6997;SDS011;3539;47.982;12.238;2023-09-18T03:10:06;6.33;;;5.67;;
6997;SDS011;3539;47.982;12.238;2023-09-18T03:12:38;8.90;;;5.10;;
6997;SDS011;3539;47.982;12.238;2023-09-18T03:15:05;5.53;;;4.93;;
6997;SDS011;3539;47.982;12.238;2023-09-18T03:17:33;4.93;;;4.43;;
6997;SDS011;3539;47.982;12.238;2023-09-18T03:19:59;7.13;;;4.97;;
6997;SDS011;3539;47.982;12.238;2023-09-18T03:22:26;6.23;;;4.73;;
6997;SDS011;3539;47.982;12.238;2023-09-18T03:24:54;5.37;;;4.43;;
6997;SDS011;3539;47.982;12.238;2023-09-18T03:27:21;6.03;;;4.30;;
6997;SDS011;3539;47.982;12.238;2023-09-18T03:29:53;4.40;;;3.87;;
6997;SDS011;3539;47.982;12.238;2023-09-18T03:32:20;6.68;;;4.43;;
6997;SDS011;3539;47.982;12.238;2023-09-18T03:34:47;4.50;;;4.10;;
6997;SDS011;3539;47.982;12.238;2023-09-18T03:37:16;4.10;;;3.77;;
6997;SDS011;3539;47.982;12.238;2023-09-18T03:39:43;4.43;;;4.03;;
6997;SDS011;3539;47.982;12.238;2023-09-18T03:42:11;4.40;;;4.00;;
6997;SDS011;3539;47.982;12.238;2023-09-18T03:44:38;4.53;;;4.13;;
6997;SDS011;3539;47.982;12.238;2023-09-18T03:47:05;4.70;;;4.30;;
6997;SDS011;3539;47.982;12.238;2023-09-18T03:49:31;4.83;;;3.63;;
6997;SDS011;3539;47.982;12.238;2023-09-18T03:51:58;4.10;;;3.70;;
6997;SDS011;3539;47.982;12.238;2023-09-18T03:54:25;4.63;;;4.17;;
6997;SDS011;3539;47.982;12.238;2023-09-18T03:56:52;3.77;;;3.37;;
6997;SDS011;3539;47.982;12.238;2023-09-18T03:59:20;4.23;;;3.83;;
6997;SDS011;3539;47.982;12.238;2023-09-18T04:01:46;5.13;;;4.43;;
6997;SDS011;3539;47.982;12.238;2023-09-18T04:04:13;4.60;;;4.13;;
6997;SDS011;3539;47.982;12.238;2023-09-18T04:06:40;5.83;;;4.13;;
6997;SDS011;3539;47.982;12.238;2023-09-18T04:09:09;4.67;;;3.90;;
6997;SDS011;3539;47.982;12.238;2023-09-18T04:11:35;5.17;;;4.20;;
6997;SDS011;3539;47.982;12.238;2023-09-18T04:14:02;4.83;;;3.87;;
6997;SDS011;3539;47.982;12.238;2023-09-18T04:16:30;5.27;;;3.80;;
6997;SDS011;3539;47.982;12.238;2023-09-18T04:19:00;4.97;;;4.40;;
6997;SDS011;3539;47.982;12.238;2023-09-18T04:21:27;4.53;;;4.13;;
6997;SDS011;3539;47.982;12.238;2023-09-18T04:23:54;4.27;;;3.87;;
6997;SDS011;3539;47.982;12.238;2023-09-18T04:26:22;3.70;;;3.40;;
6997;SDS011;3539;47.982;12.238;2023-09-18T04:28:49;4.83;;;4.20;;
6997;SDS011;3539;47.982;12.238;2023-09-18T04:31:16;5.10;;;4.30;;
6997;SDS011;3539;47.982;12.238;2023-09-18T04:33:44;4.43;;;4.03;;
6997;SDS011;3539;47.982;12.238;2023-09-18T04:36:11;4.33;;;3.93;;
6997;SDS011;3539;47.982;12.238;2023-09-18T04:38:38;4.00;;;3.60;;
6997;SDS011;3539;47.982;12.238;2023-09-18T04:41:04;4.93;;;4.43;;
6997;SDS011;3539;47.982;12.238;2023-09-18T04:43:33;3.80;;;3.50;;
6997;SDS011;3539;47.982;12.238;2023-09-18T04:46:00;4.63;;;3.87;;
6997;SDS011;3539;47.982;12.238;2023-09-18T04:48:27;5.30;;;4.27;;
6997;SDS011;3539;47.982;12.238;2023-09-18T04:50:56;5.33;;;4.83;;
6997;SDS011;3539;47.982;12.238;2023-09-18T04:53:23;5.07;;;4.50;;
6997;SDS011;3539;47.982;12.238;2023-09-18T04:55:50;5.97;;;4.37;;
6997;SDS011;3539;47.982;12.238;2023-09-18T04:58:16;5.27;;;4.33;;
6997;SDS011;3539;47.982;12.238;2023-09-18T05:00:43;4.33;;;3.93;;
6997;SDS011;3539;47.982;12.238;2023-09-18T05:03:11;4.57;;;3.60;;
6997;SDS011;3539;47.982;12.238;2023-09-18T05:05:38;4.13;;;3.70;;
6997;SDS011;3539;47.982;12.238;2023-09-18T05:08:07;3.90;;;3.40;;
6997;SDS011;3539;47.982;12.238;2023-09-18T05:10:34;4.10;;;3.60;;
6997;SDS011;3539;47.982;12.238;2023-09-18T05:13:00;4.13;;;3.60;;
6997;SDS011;3539;47.982;12.238;2023-09-18T05:15:27;4.50;;;4.10;;
6997;SDS011;3539;47.982;12.238;2023-09-18T05:17:55;4.57;;;4.17;;
6997;SDS011;3539;47.982;12.238;2023-09-18T05:20:22;4.80;;;4.30;;
6997;SDS011;3539;47.982;12.238;2023-09-18T05:22:50;5.17;;;4.67;;
6997;SDS011;3539;47.982;12.238;2023-09-18T05:25:19;5.30;;;4.70;;
6997;SDS011;3539;47.982;12.238;2023-09-18T05:27:47;5.53;;;4.90;;
6997;SDS011;3539;47.982;12.238;2023-09-18T05:30:15;5.83;;;5.23;;
6997;SDS011;3539;47.982;12.238;2023-09-18T05:32:46;5.45;;;4.95;;
6997;SDS011;3539;47.982;12.238;2023-09-18T05:35:13;5.40;;;4.90;;
6997;SDS011;3539;47.982;12.238;2023-09-18T05:37:42;5.37;;;4.87;;
6997;SDS011;3539;47.982;12.238;2023-09-18T05:40:10;6.07;;;4.97;;
6997;SDS011;3539;47.982;12.238;2023-09-18T05:42:39;5.80;;;5.30;;
6997;SDS011;3539;47.982;12.238;2023-09-18T05:45:08;6.53;;;5.80;;
6997;SDS011;3539;47.982;12.238;2023-09-18T05:47:35;6.40;;;5.70;;
6997;SDS011;3539;47.982;12.238;2023-09-18T05:50:03;7.93;;;5.67;;
6997;SDS011;3539;47.982;12.238;2023-09-18T05:52:31;6.13;;;5.10;;
6997;SDS011;3539;47.982;12.238;2023-09-18T05:54:58;5.10;;;4.50;;
6997;SDS011;3539;47.982;12.238;2023-09-18T05:57:25;4.97;;;4.57;;
6997;SDS011;3539;47.982;12.238;2023-09-18T05:59:54;5.60;;;4.50;;
6997;SDS011;3539;47.982;12.238;2023-09-18T06:02:21;4.83;;;4.27;;
6997;SDS011;3539;47.982;12.238;2023-09-18T06:04:48;7.90;;;4.50;;
6997;SDS011;3539;47.982;12.238;2023-09-18T06:07:15;6.13;;;4.50;;
6997;SDS011;3539;47.982;12.238;2023-09-18T06:09:42;6.27;;;4.90;;
6997;SDS011;3539;47.982;12.238;2023-09-18T06:12:09;4.87;;;4.40;;
6997;SDS011;3539;47.982;12.238;2023-09-18T06:14:36;5.30;;;4.53;;
6997;SDS011;3539;47.982;12.238;2023-09-18T06:17:04;6.10;;;4.10;;
6997;SDS011;3539;47.982;12.238;2023-09-18T06:19:32;4.90;;;4.23;;
6997;SDS011;3539;47.982;12.238;2023-09-18T06:21:59;4.20;;;3.87;;
6997;SDS011;3539;47.982;12.238;2023-09-18T06:24:25;5.37;;;4.87;;
6997;SDS011;3539;47.982;12.238;2023-09-18T06:26:52;5.33;;;4.83;;
6997;SDS011;3539;47.982;12.238;2023-09-18T06:29:19;5.13;;;4.70;;
6997;SDS011;3539;47.982;12.238;2023-09-18T06:31:46;5.87;;;5.23;;
6997;SDS011;3539;47.982;12.238;2023-09-18T06:34:14;6.30;;;5.70;;
6997;SDS011;3539;47.982;12.238;2023-09-18T06:36:41;6.80;;;5.67;;
6997;SDS011;3539;47.982;12.238;2023-09-18T06:39:07;5.73;;;5.20;;
6997;SDS011;3539;47.982;12.238;2023-09-18T06:41:34;8.33;;;5.97;;
6997;SDS011;3539;47.982;12.238;2023-09-18T06:44:01;5.83;;;5.23;;
6997;SDS011;3539;47.982;12.238;2023-09-18T06:46:28;6.70;;;5.33;;
6997;SDS011;3539;47.982;12.238;2023-09-18T06:48:55;5.70;;;5.20;;
6997;SDS011;3539;47.982;12.238;2023-09-18T06:51:24;5.33;;;4.83;;
6997;SDS011;3539;47.982;12.238;2023-09-18T06:53:50;5.97;;;5.30;;
6997;SDS011;3539;47.982;12.238;2023-09-18T06:56:17;5.53;;;4.73;;
6997;SDS011;3539;47.982;12.238;2023-09-18T06:58:46;8.33;;;4.93;;
6997;SDS011;3539;47.982;12.238;2023-09-18T07:01:13;5.90;;;5.10;;
6997;SDS011;3539;47.982;12.238;2023-09-18T07:03:40;5.90;;;4.47;;
6997;SDS011;3539;47.982;12.238;2023-09-18T07:06:07;6.37;;;4.50;;
6997;SDS011;3539;47.982;12.238;2023-09-18T07:08:35;4.80;;;4.40;;
6997;SDS011;3539;47.982;12.238;2023-09-18T07:11:02;6.80;;;4.30;;
6997;SDS011;3539;47.982;12.238;2023-09-18T07:13:28;4.83;;;4.33;;
6997;SDS011;3539;47.982;12.238;2023-09-18T07:15:55;6.40;;;4.50;;
6997;SDS011;3539;47.982;12.238;2023-09-18T07:18:22;4.70;;;4.30;;
6997;SDS011;3539;47.982;12.238;2023-09-18T07:20:49;8.37;;;5.03;;
6997;SDS011;3539;47.982;12.238;2023-09-18T07:23:15;8.00;;;4.80;;
6997;SDS011;3539;47.982;12.238;2023-09-18T07:25:44;7.03;;;5.00;;
6997;SDS011;3539;47.982;12.238;2023-09-18T07:28:10;5.67;;;4.53;;
6997;SDS011;3539;47.982;12.238;2023-09-18T07:30:42;6.53;;;4.53;;
6997;SDS011;3539;47.982;12.238;2023-09-18T07:33:09;6.83;;;4.50;;
6997;SDS011;3539;47.982;12.238;2023-09-18T07:35:37;10.77;;;4.50;;
6997;SDS011;3539;47.982;12.238;2023-09-18T07:38:04;6.30;;;4.20;;
6997;SDS011;3539;47.982;12.238;2023-09-18T07:40:31;7.30;;;4.63;;
6997;SDS011;3539;47.982;12.238;2023-09-18T07:42:59;5.73;;;5.00;;
6997;SDS011;3539;47.982;12.238;2023-09-18T07:45:26;5.50;;;4.37;;
6997;SDS011;3539;47.982;12.238;2023-09-18T07:47:52;7.03;;;4.30;;
6997;SDS011;3539;47.982;12.238;2023-09-18T07:50:19;6.07;;;4.63;;
6997;SDS011;3539;47.982;12.238;2023-09-18T07:52:46;5.97;;;4.60;;
6997;SDS011;3539;47.982;12.238;2023-09-18T07:55:13;6.67;;;4.70;;
6997;SDS011;3539;47.982;12.238;2023-09-18T07:57:39;5.33;;;4.30;;
6997;SDS011;3539;47.982;12.238;2023-09-18T08:00:08;5.20;;;4.10;;
6997;SDS011;3539;47.982;12.238;2023-09-18T08:02:38;6.43;;;4.57;;
6997;SDS011;3539;47.982;12.238;2023-09-18T08:05:04;5.33;;;3.80;;
6997;SDS011;3539;47.982;12.238;2023-09-18T08:07:35;4.40;;;3.90;;
6997;SDS011;3539;47.982;12.238;2023-09-18T08:10:02;5.93;;;3.93;;
6997;SDS011;3539;47.982;12.238;2023-09-18T08:12:31;5.40;;;3.80;;
6997;SDS011;3539;47.982;12.238;2023-09-18T08:14:58;6.10;;;3.83;;
6997;SDS011;3539;47.982;12.238;2023-09-18T08:17:26;4.07;;;3.67;;
6997;SDS011;3539;47.982;12.238;2023-09-18T08:19:53;7.43;;;3.40;;
6997;SDS011;3539;47.982;12.238;2023-09-18T08:22:20;4.83;;;3.50;;
6997;SDS011;3539;47.982;12.238;2023-09-18T08:24:47;4.30;;;3.63;;
6997;SDS011;3539;47.982;12.238;2023-09-18T08:27:17;4.13;;;3.20;;
6997;SDS011;3539;47.982;12.238;2023-09-18T08:29:44;4.27;;;3.00;;
6997;SDS011;3539;47.982;12.238;2023-09-18T08:32:13;5.87;;;3.43;;
6997;SDS011;3539;47.982;12.238;2023-09-18T08:34:41;4.83;;;3.00;;
6997;SDS011;3539;47.982;12.238;2023-09-18T08:37:09;6.77;;;3.50;;
6997;SDS011;3539;47.982;12.238;2023-09-18T08:39:43;5.10;;;3.10;;
6997;SDS011;3539;47.982;12.238;2023-09-18T08:45:05;5.50;;;3.30;;
6997;SDS011;3539;47.982;12.238;2023-09-18T08:47:37;6.30;;;3.40;;
6997;SDS011;3539;47.982;12.238;2023-09-18T08:50:07;5.00;;;2.97;;
6997;SDS011;3539;47.982;12.238;2023-09-18T08:52:35;9.37;;;3.33;;
6997;SDS011;3539;47.982;12.238;2023-09-18T08:55:02;4.53;;;2.70;;
6997;SDS011;3539;47.982;12.238;2023-09-18T08:57:29;7.50;;;3.30;;
6997;SDS011;3539;47.982;12.238;2023-09-18T08:59:58;5.37;;;3.20;;
6997;SDS011;3539;47.982;12.238;2023-09-18T09:02:30;6.67;;;2.60;;
6997;SDS011;3539;47.982;12.238;2023-09-18T09:04:57;4.93;;;3.07;;
6997;SDS011;3539;47.982;12.238;2023-09-18T09:07:26;5.97;;;2.60;;
6997;SDS011;3539;47.982;12.238;2023-09-18T09:09:54;6.50;;;3.30;;
6997;SDS011;3539;47.982;12.238;2023-09-18T09:15:15;7.37;;;2.87;;
6997;SDS011;3539;47.982;12.238;2023-09-18T09:17:42;6.60;;;2.95;;
6997;SDS011;3539;47.982;12.238;2023-09-18T09:20:09;5.17;;;2.80;;
6997;SDS011;3539;47.982;12.238;2023-09-18T09:22:38;9.40;;;3.27;;
6997;SDS011;3539;47.982;12.238;2023-09-18T09:25:21;6.03;;;2.97;;
6997;SDS011;3539;47.982;12.238;2023-09-18T09:27:49;4.10;;;2.53;;
6997;SDS011;3539;47.982;12.238;2023-09-18T09:30:18;8.80;;;2.70;;
6997;SDS011;3539;47.982;12.238;2023-09-18T09:32:47;4.83;;;2.70;;
6997;SDS011;3539;47.982;12.238;2023-09-18T09:35:18;4.90;;;2.60;;
6997;SDS011;3539;47.982;12.238;2023-09-18T09:37:50;7.20;;;2.50;;
6997;SDS011;3539;47.982;12.238;2023-09-18T09:40:18;5.03;;;2.67;;
6997;SDS011;3539;47.982;12.238;2023-09-18T09:42:46;7.87;;;2.50;;
6997;SDS011;3539;47.982;12.238;2023-09-18T09:45:13;9.70;;;2.77;;
6997;SDS011;3539;47.982;12.238;2023-09-18T09:47:42;6.00;;;2.50;;
6997;SDS011;3539;47.982;12.238;2023-09-18T09:50:10;9.47;;;2.83;;
6997;SDS011;3539;47.982;12.238;2023-09-18T09:52:41;4.77;;;2.37;;
6997;SDS011;3539;47.982;12.238;2023-09-18T09:55:21;6.37;;;2.57;;
6997;SDS011;3539;47.982;12.238;2023-09-18T09:57:50;8.17;;;2.70;;
6997;SDS011;3539;47.982;12.238;2023-09-18T10:00:22;4.77;;;2.60;;
6997;SDS011;3539;47.982;12.238;2023-09-18T10:02:56;6.60;;;2.53;;
6997;SDS011;3539;47.982;12.238;2023-09-18T10:05:31;4.97;;;2.43;;
6997;SDS011;3539;47.982;12.238;2023-09-18T10:08:03;8.90;;;3.00;;
6997;SDS011;3539;47.982;12.238;2023-09-18T10:10:35;6.03;;;2.50;;
6997;SDS011;3539;47.982;12.238;2023-09-18T10:13:06;6.57;;;2.50;;
6997;SDS011;3539;47.982;12.238;2023-09-18T10:15:36;4.97;;;2.50;;
6997;SDS011;3539;47.982;12.238;2023-09-18T10:18:05;5.63;;;2.60;;
6997;SDS011;3539;47.982;12.238;2023-09-18T10:20:37;4.20;;;2.43;;
6997;SDS011;3539;47.982;12.238;2023-09-18T10:23:11;6.10;;;2.37;;
6997;SDS011;3539;47.982;12.238;2023-09-18T10:25:44;7.10;;;2.47;;
6997;SDS011;3539;47.982;12.238;2023-09-18T10:28:11;6.43;;;2.80;;
6997;SDS011;3539;47.982;12.238;2023-09-18T10:30:41;7.50;;;2.77;;
6997;SDS011;3539;47.982;12.238;2023-09-18T10:33:08;3.70;;;2.50;;
6997;SDS011;3539;47.982;12.238;2023-09-18T10:35:39;6.70;;;2.50;;
6997;SDS011;3539;47.982;12.238;2023-09-18T10:38:07;6.17;;;2.70;;
6997;SDS011;3539;47.982;12.238;2023-09-18T10:40:40;5.93;;;2.67;;
6997;SDS011;3539;47.982;12.238;2023-09-18T10:43:09;4.63;;;2.70;;
6997;SDS011;3539;47.982;12.238;2023-09-18T10:45:37;7.50;;;3.17;;
6997;SDS011;3539;47.982;12.238;2023-09-18T10:48:05;6.17;;;2.63;;
6997;SDS011;3539;47.982;12.238;2023-09-18T10:50:33;7.33;;;2.73;;
6997;SDS011;3539;47.982;12.238;2023-09-18T10:53:00;7.60;;;2.93;;
6997;SDS011;3539;47.982;12.238;2023-09-18T10:55:27;6.50;;;2.80;;
6997;SDS011;3539;47.982;12.238;2023-09-18T10:57:55;6.97;;;2.67;;
6997;SDS011;3539;47.982;12.238;2023-09-18T11:00:25;6.83;;;3.40;;
6997;SDS011;3539;47.982;12.238;2023-09-18T11:02:53;6.03;;;2.90;;
6997;SDS011;3539;47.982;12.238;2023-09-18T11:05:32;7.63;;;3.27;;
6997;SDS011;3539;47.982;12.238;2023-09-18T11:10:54;8.60;;;2.93;;
6997;SDS011;3539;47.982;12.238;2023-09-18T11:13:30;7.50;;;2.80;;
6997;SDS011;3539;47.982;12.238;2023-09-18T11:16:03;7.73;;;2.80;;
6997;SDS011;3539;47.982;12.238;2023-09-18T11:18:45;5.30;;;3.37;;
6997;SDS011;3539;47.982;12.238;2023-09-18T11:21:14;7.60;;;3.00;;
6997;SDS011;3539;47.982;12.238;2023-09-18T11:23:43;5.70;;;2.97;;
6997;SDS011;3539;47.982;12.238;2023-09-18T11:26:10;6.47;;;3.07;;
6997;SDS011;3539;47.982;12.238;2023-09-18T11:28:37;9.20;;;2.90;;
6997;SDS011;3539;47.982;12.238;2023-09-18T11:31:05;4.47;;;2.83;;
6997;SDS011;3539;47.982;12.238;2023-09-18T11:33:36;5.57;;;2.63;;
6997;SDS011;3539;47.982;12.238;2023-09-18T11:36:05;5.70;;;2.90;;
6997;SDS011;3539;47.982;12.238;2023-09-18T11:38:33;7.10;;;2.97;;
6997;SDS011;3539;47.982;12.238;2023-09-18T11:41:01;12.43;;;3.27;;
6997;SDS011;3539;47.982;12.238;2023-09-18T11:43:46;8.68;;;3.08;;
6997;SDS011;3539;47.982;12.238;2023-09-18T11:46:17;6.57;;;2.70;;
6997;SDS011;3539;47.982;12.238;2023-09-18T11:48:44;7.32;;;2.15;;
6997;SDS011;3539;47.982;12.238;2023-09-18T11:51:15;7.83;;;2.77;;
6997;SDS011;3539;47.982;12.238;2023-09-18T11:53:47;5.90;;;3.03;;
6997;SDS011;3539;47.982;12.238;2023-09-18T11:56:17;7.03;;;2.70;;
6997;SDS011;3539;47.982;12.238;2023-09-18T11:58:44;7.27;;;3.00;;
6997;SDS011;3539;47.982;12.238;2023-09-18T12:01:11;7.13;;;2.43;;
6997;SDS011;3539;47.982;12.238;2023-09-18T12:03:41;7.70;;;2.70;;
6997;SDS011;3539;47.982;12.238;2023-09-18T12:06:08;7.57;;;2.00;;
6997;SDS011;3539;47.982;12.238;2023-09-18T12:08:38;9.80;;;2.80;;
6997;SDS011;3539;47.982;12.238;2023-09-18T12:11:05;5.83;;;2.50;;
6997;SDS011;3539;47.982;12.238;2023-09-18T12:13:32;5.43;;;2.33;;
6997;SDS011;3539;47.982;12.238;2023-09-18T12:16:00;8.93;;;2.37;;
6997;SDS011;3539;47.982;12.238;2023-09-18T12:18:30;6.57;;;2.80;;
6997;SDS011;3539;47.982;12.238;2023-09-18T12:20:59;7.97;;;2.67;;
6997;SDS011;3539;47.982;12.238;2023-09-18T12:23:26;6.07;;;2.00;;
6997;SDS011;3539;47.982;12.238;2023-09-18T12:25:56;6.53;;;2.70;;
6997;SDS011;3539;47.982;12.238;2023-09-18T12:28:25;8.60;;;3.07;;
6997;SDS011;3539;47.982;12.238;2023-09-18T12:30:53;6.83;;;2.70;;
6997;SDS011;3539;47.982;12.238;2023-09-18T12:33:21;9.43;;;2.60;;
6997;SDS011;3539;47.982;12.238;2023-09-18T12:35:49;7.17;;;3.03;;
6997;SDS011;3539;47.982;12.238;2023-09-18T12:38:18;10.07;;;2.57;;
6997;SDS011;3539;47.982;12.238;2023-09-18T12:40:49;5.27;;;2.73;;
6997;SDS011;3539;47.982;12.238;2023-09-18T12:43:16;8.50;;;2.40;;
6997;SDS011;3539;47.982;12.238;2023-09-18T12:45:44;6.33;;;2.57;;
6997;SDS011;3539;47.982;12.238;2023-09-18T12:48:12;6.33;;;2.43;;
6997;SDS011;3539;47.982;12.238;2023-09-18T12:50:40;5.40;;;2.13;;
6997;SDS011;3539;47.982;12.238;2023-09-18T12:53:07;5.23;;;2.20;;
6997;SDS011;3539;47.982;12.238;2023-09-18T12:55:36;5.23;;;2.37;;
6997;SDS011;3539;47.982;12.238;2023-09-18T12:58:03;4.90;;;1.90;;
6997;SDS011;3539;47.982;12.238;2023-09-18T13:00:33;3.67;;;1.70;;
6997;SDS011;3539;47.982;12.238;2023-09-18T13:03:00;3.43;;;1.67;;
6997;SDS011;3539;47.982;12.238;2023-09-18T13:05:29;2.30;;;1.20;;
6997;SDS011;3539;47.982;12.238;2023-09-18T13:08:01;3.90;;;1.40;;
6997;SDS011;3539;47.982;12.238;2023-09-18T13:10:29;3.13;;;1.30;;
6997;SDS011;3539;47.982;12.238;2023-09-18T13:12:57;3.73;;;1.40;;
6997;SDS011;3539;47.982;12.238;2023-09-18T13:15:25;2.17;;;1.30;;
6997;SDS011;3539;47.982;12.238;2023-09-18T13:17:53;1.73;;;1.20;;
6997;SDS011;3539;47.982;12.238;2023-09-18T13:20:21;1.73;;;1.10;;
6997;SDS011;3539;47.982;12.238;2023-09-18T13:22:50;2.17;;;0.90;;
6997;SDS011;3539;47.982;12.238;2023-09-18T13:25:22;2.53;;;1.03;;
6997;SDS011;3539;47.982;12.238;2023-09-18T13:27:53;4.30;;;1.07;;
6997;SDS011;3539;47.982;12.238;2023-09-18T13:30:22;2.37;;;1.13;;
6997;SDS011;3539;47.982;12.238;2023-09-18T13:32:49;2.90;;;1.20;;
6997;SDS011;3539;47.982;12.238;2023-09-18T13:35:16;2.33;;;1.17;;
6997;SDS011;3539;47.982;12.238;2023-09-18T13:37:43;3.20;;;1.30;;
6997;SDS011;3539;47.982;12.238;2023-09-18T13:40:14;3.20;;;1.07;;
6997;SDS011;3539;47.982;12.238;2023-09-18T13:42:41;2.00;;;0.90;;
6997;SDS011;3539;47.982;12.238;2023-09-18T13:45:08;2.07;;;1.20;;
6997;SDS011;3539;47.982;12.238;2023-09-18T13:47:37;3.07;;;1.10;;
6997;SDS011;3539;47.982;12.238;2023-09-18T13:50:07;1.20;;;1.10;;
6997;SDS011;3539;47.982;12.238;2023-09-18T13:52:35;1.57;;;1.20;;
6997;SDS011;3539;47.982;12.238;2023-09-18T13:55:02;2.03;;;1.13;;
6997;SDS011;3539;47.982;12.238;2023-09-18T13:57:30;5.50;;;1.20;;
6997;SDS011;3539;47.982;12.238;2023-09-18T14:00:00;3.50;;;1.10;;
6997;SDS011;3539;47.982;12.238;2023-09-18T14:02:30;0.80;;;0.80;;
6997;SDS011;3539;47.982;12.238;2023-09-18T14:04:59;1.40;;;1.00;;
6997;SDS011;3539;47.982;12.238;2023-09-18T14:07:27;1.70;;;1.20;;
6997;SDS011;3539;47.982;12.238;2023-09-18T14:09:54;3.30;;;1.30;;
6997;SDS011;3539;47.982;12.238;2023-09-18T14:12:21;2.78;;;1.20;;
6997;SDS011;3539;47.982;12.238;2023-09-18T14:14:48;2.70;;;1.20;;
6997;SDS011;3539;47.982;12.238;2023-09-18T14:17:15;1.77;;;1.10;;
6997;SDS011;3539;47.982;12.238;2023-09-18T14:19:43;2.80;;;1.20;;
6997;SDS011;3539;47.982;12.238;2023-09-18T14:22:11;1.30;;;1.07;;
6997;SDS011;3539;47.982;12.238;2023-09-18T14:24:39;2.33;;;1.20;;
6997;SDS011;3539;47.982;12.238;2023-09-18T14:27:06;2.47;;;1.10;;
6997;SDS011;3539;47.982;12.238;2023-09-18T14:29:34;1.97;;;1.27;;
6997;SDS011;3539;47.982;12.238;2023-09-18T14:32:00;1.13;;;1.03;;
6997;SDS011;3539;47.982;12.238;2023-09-18T14:34:27;1.33;;;1.10;;
6997;SDS011;3539;47.982;12.238;2023-09-18T14:36:55;1.87;;;1.60;;
6997;SDS011;3539;47.982;12.238;2023-09-18T14:39:23;1.83;;;1.30;;
6997;SDS011;3539;47.982;12.238;2023-09-18T14:41:51;1.57;;;1.40;;
6997;SDS011;3539;47.982;12.238;2023-09-18T14:44:18;2.77;;;1.07;;
6997;SDS011;3539;47.982;12.238;2023-09-18T14:46:45;1.97;;;1.30;;
6997;SDS011;3539;47.982;12.238;2023-09-18T14:49:13;1.87;;;1.20;;
6997;SDS011;3539;47.982;12.238;2023-09-18T14:51:40;1.30;;;1.20;;
6997;SDS011;3539;47.982;12.238;2023-09-18T14:54:07;2.77;;;1.30;;
6997;SDS011;3539;47.982;12.238;2023-09-18T14:56:35;2.73;;;1.47;;
6997;SDS011;3539;47.982;12.238;2023-09-18T14:59:02;1.60;;;1.17;;
6997;SDS011;3539;47.982;12.238;2023-09-18T15:01:30;4.90;;;1.20;;
6997;SDS011;3539;47.982;12.238;2023-09-18T15:03:56;2.30;;;1.30;;
6997;SDS011;3539;47.982;12.238;2023-09-18T15:06:24;1.30;;;1.10;;
6997;SDS011;3539;47.982;12.238;2023-09-18T15:08:51;1.40;;;1.13;;
6997;SDS011;3539;47.982;12.238;2023-09-18T15:11:18;1.50;;;1.10;;
6997;SDS011;3539;47.982;12.238;2023-09-18T15:13:46;1.37;;;1.00;;